Malatya/Erhac, Turkey
Current Conditions -  °F | °C
As of 10:50 AM on Friday 24 Oct 2014 (Local Time) from LTAT Reporting Station
Few Clouds Few Clouds  
Wind Chill: 16°   Ceiling: Unl
Heat Index: 16°   Visibility: 6mi
Dew Point:   Wind: 3mph
Humidity: 63%   Direction: 30°NNE
Pressure: 30.12"   Gusts: NA
Location:  38.43°N, 38.08°E
Report Text: LTAT 240750Z 03003KT 330V060 9999 FEW040 16/09 Q1020 NOSIG
Loading
Personal Weather Stations






























Interactive Weather Map
Tropical Storm Tracking
New forecast layout! Learn more

10-Day Weather Forecast

Advertisements
Track Severe Weather on mobile